createdAt,value
2022-10-17T00:01:52.350Z,61.97
2022-10-17T00:04:22.954Z,64.72
2022-10-17T00:06:52.185Z,61.08
2022-10-17T00:09:21.250Z,64.55
2022-10-17T00:11:50.325Z,63.60
2022-10-17T00:14:19.560Z,70.18
2022-10-17T00:16:48.628Z,67.63
2022-10-17T00:19:17.864Z,67.70
2022-10-17T00:21:50.383Z,65.50
2022-10-17T00:24:19.411Z,66.22
2022-10-17T00:26:48.715Z,61.13
2022-10-17T00:29:17.981Z,63.78
2022-10-17T00:31:49.803Z,65.45
2022-10-17T00:34:19.139Z,66.65
2022-10-17T00:36:49.768Z,61.05
2022-10-17T00:39:18.894Z,62.13
2022-10-17T00:41:48.061Z,64.15
2022-10-17T00:44:56.024Z,63.40
2022-10-17T00:47:25.144Z,59.92
2022-10-17T00:49:54.379Z,63.05
2022-10-17T00:52:28.346Z,63.60
2022-10-17T00:55:02.534Z,64.90
2022-10-17T00:57:33.358Z,62.78
2022-10-17T01:00:06.299Z,65.32
2022-10-17T01:02:37.473Z,60.60
2022-10-17T01:05:08.071Z,59.60
2022-10-17T01:07:39.823Z,62.63
2022-10-17T01:10:10.537Z,63.83
2022-10-17T01:13:01.920Z,58.80
2022-10-17T01:15:41.657Z,64.38
2022-10-17T01:18:21.572Z,58.90
2022-10-17T01:21:29.878Z,60.58
2022-10-17T01:24:52.953Z,60.08
2022-10-17T01:28:06.686Z,61.85
2022-10-17T01:31:10.958Z,61.67
2022-10-17T01:33:48.974Z,62.67
2022-10-17T01:36:37.448Z,63.75
2022-10-17T01:39:16.489Z,55.95
2022-10-17T01:41:51.739Z,60.63
2022-10-17T01:44:26.912Z,58.13
2022-10-17T01:47:02.989Z,59.38
2022-10-17T01:49:34.974Z,56.58
2022-10-17T01:52:09.730Z,59.22
2022-10-17T01:54:43.816Z,58.93
2022-10-17T01:57:19.746Z,58.25
2022-10-17T01:59:53.268Z,57.75
2022-10-17T02:02:26.152Z,58.40
2022-10-17T02:04:58.614Z,56.03
2022-10-17T02:07:28.236Z,60.92
2022-10-17T02:09:57.529Z,57.38
2022-10-17T02:12:47.237Z,57.83
2022-10-17T02:15:41.901Z,56.17
2022-10-17T02:18:24.041Z,57.27
2022-10-17T02:20:58.198Z,61.13
2022-10-17T02:23:37.724Z,59.83
2022-10-17T02:26:12.999Z,58.73
2022-10-17T02:28:46.317Z,59.67
2022-10-17T02:31:18.092Z,65.07
2022-10-17T02:33:53.313Z,57.33
2022-10-17T02:36:25.353Z,58.80
2022-10-17T02:38:56.395Z,61.13
2022-10-17T02:41:26.799Z,58.83
2022-10-17T02:43:57.705Z,56.00
2022-10-17T02:46:32.592Z,55.53
2022-10-17T02:49:07.281Z,54.20
2022-10-17T02:51:43.866Z,58.03
2022-10-17T02:54:18.933Z,58.43
2022-10-17T02:56:54.993Z,58.17
2022-10-17T02:59:27.091Z,59.20
2022-10-17T03:01:56.976Z,61.07
2022-10-17T03:04:28.264Z,61.20
2022-10-17T03:06:57.740Z,61.70
2022-10-17T03:09:26.779Z,62.60
2022-10-17T03:11:55.960Z,63.37
2022-10-17T03:14:25.175Z,63.70
2022-10-17T03:16:54.394Z,67.60
2022-10-17T03:19:24.264Z,61.67
2022-10-17T03:21:56.755Z,64.77
2022-10-17T03:24:25.956Z,61.13
2022-10-17T03:26:55.578Z,56.23
2022-10-17T03:29:24.923Z,51.73
2022-10-17T03:31:54.083Z,51.33
2022-10-17T03:34:23.451Z,48.90
2022-10-17T03:36:52.770Z,50.57
2022-10-17T03:39:23.618Z,51.90
2022-10-17T03:41:52.718Z,50.97
2022-10-17T03:44:22.553Z,53.87
2022-10-17T03:46:51.658Z,59.60
2022-10-17T03:49:20.723Z,59.97
2022-10-17T03:51:49.832Z,60.23
2022-10-17T03:54:20.252Z,58.73
2022-10-17T03:56:50.833Z,56.67
2022-10-17T03:59:21.964Z,59.20
2022-10-17T04:02:00.621Z,61.13
2022-10-17T04:04:30.574Z,65.60
2022-10-17T04:07:00.901Z,64.73
2022-10-17T04:09:30.176Z,64.90
2022-10-17T04:12:17.955Z,65.33
2022-10-17T04:14:47.053Z,63.20
2022-10-17T04:17:17.423Z,62.40
2022-10-17T04:19:47.336Z,64.90
2022-10-17T04:22:18.983Z,59.80
2022-10-17T04:24:49.334Z,61.03
2022-10-17T04:27:29.621Z,60.40
2022-10-17T04:29:58.730Z,62.67
2022-10-17T04:32:28.076Z,62.30
2022-10-17T04:35:02.868Z,63.30
2022-10-17T04:37:32.021Z,64.60
2022-10-17T04:40:04.462Z,60.70
2022-10-17T04:42:36.641Z,58.63
2022-10-17T04:45:07.050Z,56.97
2022-10-17T04:47:37.790Z,53.50
2022-10-17T04:50:09.325Z,57.43
2022-10-17T04:52:38.894Z,53.93
2022-10-17T04:55:10.675Z,55.37
2022-10-17T04:57:41.838Z,63.37
2022-10-17T05:00:22.516Z,57.37
2022-10-17T05:03:01.253Z,58.40
2022-10-17T05:05:31.724Z,53.77
2022-10-17T05:08:02.888Z,52.50
2022-10-17T05:10:38.318Z,54.57
2022-10-17T05:13:09.789Z,53.57
2022-10-17T05:15:39.853Z,58.90
2022-10-17T05:18:10.493Z,59.07
2022-10-17T05:20:42.520Z,58.77
2022-10-17T05:23:12.223Z,56.77
2022-10-17T05:25:44.918Z,59.53
2022-10-17T05:28:15.511Z,57.23
2022-10-17T05:30:45.691Z,54.63
2022-10-17T05:33:14.754Z,56.37
2022-10-17T05:35:43.788Z,57.93
2022-10-17T05:38:13.032Z,56.40
2022-10-17T05:40:44.161Z,56.10
2022-10-17T05:43:15.164Z,58.30
2022-10-17T05:45:45.489Z,55.23
2022-10-17T05:48:20.008Z,54.07
2022-10-17T05:50:49.224Z,51.40
2022-10-17T05:53:19.472Z,52.37
2022-10-17T05:55:58.169Z,53.50
2022-10-17T05:58:49.152Z,52.90
2022-10-17T06:01:38.058Z,51.50
2022-10-17T06:04:07.223Z,53.10
2022-10-17T06:06:38.351Z,53.17
2022-10-17T06:09:08.237Z,56.57
2022-10-17T06:11:40.737Z,50.77
2022-10-17T06:14:11.825Z,51.73
2022-10-17T06:16:43.678Z,52.50
2022-10-17T06:19:13.073Z,54.00
2022-10-17T06:21:42.648Z,55.73
2022-10-17T06:24:15.422Z,53.43
2022-10-17T06:26:45.472Z,57.60
2022-10-17T06:29:18.264Z,61.03
2022-10-17T06:31:53.102Z,68.40
2022-10-17T06:34:23.218Z,66.37
2022-10-17T06:36:52.353Z,75.50
2022-10-17T06:39:22.381Z,67.03
2022-10-17T06:42:06.738Z,62.33
2022-10-17T06:45:10.966Z,66.17
2022-10-17T06:48:01.081Z,64.73
2022-10-17T06:50:52.109Z,69.03
2022-10-17T06:53:25.343Z,62.67
2022-10-17T06:56:28.615Z,58.13
2022-10-17T06:59:16.045Z,64.43
2022-10-17T07:01:54.568Z,58.93
2022-10-17T07:04:26.648Z,64.33
2022-10-17T07:09:32.137Z,55.33
2022-10-17T07:12:01.890Z,63.87
2022-10-17T07:14:33.199Z,61.00
2022-10-17T07:17:03.902Z,66.90
2022-10-17T07:19:34.878Z,59.83
2022-10-17T07:22:04.623Z,59.03
2022-10-17T07:24:35.028Z,59.17
2022-10-17T07:27:25.234Z,57.93
2022-10-17T07:29:54.402Z,54.90
2022-10-17T07:32:36.045Z,57.00
2022-10-17T07:35:06.760Z,56.30
2022-10-17T07:37:36.025Z,51.85
2022-10-17T07:40:06.712Z,52.10
2022-10-17T07:45:13.568Z,51.75
2022-10-17T07:47:47.574Z,55.10
2022-10-17T07:50:18.291Z,55.45
2022-10-17T07:52:47.478Z,52.03
2022-10-17T07:55:16.878Z,53.28
2022-10-17T07:57:46.087Z,53.40
2022-10-17T08:00:15.726Z,47.83
2022-10-17T08:02:46.478Z,52.17
2022-10-17T08:05:15.651Z,57.03
2022-10-17T08:07:44.883Z,54.97
2022-10-17T08:10:15.587Z,51.95
2022-10-17T08:12:45.114Z,52.42
2022-10-17T08:15:14.408Z,55.08
2022-10-17T08:17:43.747Z,58.83
2022-10-17T08:20:14.840Z,57.25
2022-10-17T08:22:44.094Z,61.95
2022-10-17T08:25:13.392Z,61.45
2022-10-17T08:27:42.642Z,68.13
2022-10-17T08:30:12.859Z,66.55
2022-10-17T08:32:42.311Z,67.07
2022-10-17T08:35:12.096Z,66.78
2022-10-17T08:37:42.815Z,67.38
2022-10-17T08:40:18.996Z,67.30
2022-10-17T08:43:00.299Z,67.32
2022-10-17T08:45:34.610Z,79.68
2022-10-17T08:48:07.213Z,65.63
2022-10-17T08:50:39.645Z,72.53
2022-10-17T08:53:19.609Z,67.97
2022-10-17T08:55:50.036Z,76.05
2022-10-17T08:58:24.128Z,67.15
2022-10-17T09:01:02.847Z,70.78
2022-10-17T09:03:49.404Z,68.28
2022-10-17T09:06:24.711Z,70.00
2022-10-17T09:09:09.884Z,73.30
2022-10-17T09:11:58.998Z,64.30
2022-10-17T09:14:46.259Z,63.33
2022-10-17T09:17:25.952Z,63.22
2022-10-17T09:20:03.551Z,68.90
2022-10-17T09:22:40.167Z,68.07
2022-10-17T09:25:15.873Z,60.33
2022-10-17T09:27:48.256Z,58.50
2022-10-17T09:30:47.494Z,62.60
2022-10-17T09:33:28.784Z,67.45
2022-10-17T09:36:08.044Z,62.00
2022-10-17T09:38:41.861Z,60.67
2022-10-17T09:41:43.599Z,59.30
2022-10-17T09:44:17.879Z,60.70
2022-10-17T09:47:03.417Z,63.65
2022-10-17T09:49:35.283Z,61.67
2022-10-17T09:52:07.337Z,60.20
2022-10-17T09:54:43.869Z,65.65
2022-10-17T09:57:16.136Z,67.53
2022-10-17T09:59:47.672Z,63.47
2022-10-17T10:02:20.632Z,64.68
2022-10-17T10:05:04.307Z,63.00
2022-10-17T10:07:36.665Z,64.72
2022-10-17T10:10:07.640Z,65.00
2022-10-17T10:12:41.513Z,62.78
2022-10-17T10:15:35.688Z,56.70
2022-10-17T10:18:05.201Z,57.40
2022-10-17T10:20:36.761Z,61.92
2022-10-17T10:23:17.630Z,63.15
2022-10-17T10:25:57.877Z,55.25
2022-10-17T10:28:31.616Z,57.45
2022-10-17T10:31:02.961Z,58.25
2022-10-17T10:33:39.269Z,52.20
2022-10-17T10:36:10.997Z,55.58
2022-10-17T10:38:43.696Z,58.35
2022-10-17T10:41:13.618Z,56.80
2022-10-17T10:43:47.321Z,51.97
2022-10-17T10:46:21.413Z,52.55
2022-10-17T10:48:55.767Z,60.28
2022-10-17T10:51:29.860Z,56.88
2022-10-17T10:54:05.869Z,56.33
2022-10-17T10:56:39.589Z,49.55
2022-10-17T10:59:19.393Z,54.00
2022-10-17T11:01:53.523Z,50.50
2022-10-17T11:04:29.571Z,53.88
2022-10-17T11:07:04.972Z,51.63
2022-10-17T11:09:44.414Z,55.90
2022-10-17T11:12:20.346Z,51.35
2022-10-17T11:14:56.562Z,50.72
2022-10-17T11:17:34.342Z,58.10
2022-10-17T11:20:16.739Z,48.47
2022-10-17T11:22:48.932Z,53.38
2022-10-17T11:25:30.618Z,51.50
2022-10-17T11:28:04.621Z,44.75
2022-10-17T11:33:29.339Z,48.83
2022-10-17T11:36:04.901Z,56.35
2022-10-17T11:38:47.600Z,49.33
2022-10-17T11:41:22.354Z,48.58
2022-10-17T11:43:56.162Z,51.95
2022-10-17T11:46:28.401Z,47.83
2022-10-17T11:49:07.706Z,44.08
2022-10-17T11:52:03.284Z,45.92
2022-10-17T11:54:38.241Z,47.08
2022-10-17T11:57:21.085Z,48.35
2022-10-17T12:00:08.925Z,42.30
2022-10-17T12:03:00.030Z,43.85
2022-10-17T12:05:35.268Z,41.75
2022-10-17T12:08:11.266Z,47.33
2022-10-17T12:10:49.967Z,49.33
2022-10-17T12:13:48.799Z,51.05
2022-10-17T12:16:47.723Z,46.13
2022-10-17T12:19:32.940Z,49.58
2022-10-17T12:22:22.785Z,47.35
2022-10-17T12:25:01.114Z,45.53
2022-10-17T12:28:04.165Z,46.85
2022-10-17T12:30:33.421Z,47.50
2022-10-17T12:33:08.488Z,47.33
2022-10-17T12:35:40.611Z,44.22
2022-10-17T12:38:30.244Z,47.40
2022-10-17T12:41:08.596Z,43.50
2022-10-17T12:46:46.533Z,43.10
2022-10-17T12:49:38.415Z,44.28
2022-10-17T12:52:22.434Z,42.05
2022-10-17T12:55:13.987Z,42.88
2022-10-17T12:57:55.748Z,40.67
2022-10-17T13:00:32.325Z,41.33
2022-10-17T13:03:07.991Z,40.28
2022-10-17T13:05:41.749Z,43.53
2022-10-17T13:08:22.544Z,45.47
2022-10-17T13:10:53.612Z,38.47
2022-10-17T13:13:25.390Z,38.38
2022-10-17T13:15:56.222Z,40.80
2022-10-17T13:18:27.703Z,37.70
2022-10-17T13:20:59.375Z,33.90
2022-10-17T13:23:33.167Z,37.72
2022-10-17T13:26:14.090Z,40.33
2022-10-17T13:28:43.944Z,40.88
2022-10-17T13:31:34.853Z,43.28
2022-10-17T13:34:07.693Z,39.88
2022-10-17T13:36:38.263Z,41.63
2022-10-17T13:39:14.955Z,41.92
2022-10-17T13:41:47.048Z,34.83
2022-10-17T13:44:20.995Z,35.92
2022-10-17T13:46:50.550Z,36.95
2022-10-17T13:49:25.924Z,36.05
2022-10-17T13:51:58.102Z,34.47
2022-10-17T13:54:38.309Z,35.00
2022-10-17T13:57:17.524Z,34.30
2022-10-17T13:59:49.342Z,37.00
2022-10-17T14:02:21.575Z,38.45
2022-10-17T14:05:19.026Z,34.25
2022-10-17T14:10:45.951Z,43.42
2022-10-17T14:13:24.363Z,47.63
2022-10-17T14:15:55.101Z,41.22
2022-10-17T14:18:33.253Z,34.50
2022-10-17T14:24:14.803Z,43.60
2022-10-17T14:26:53.433Z,50.33
2022-10-17T14:29:26.408Z,43.10
2022-10-17T14:32:05.082Z,43.70
2022-10-17T14:34:37.159Z,51.70
2022-10-17T14:37:11.928Z,45.45
2022-10-17T14:39:41.329Z,43.47
2022-10-17T14:42:20.973Z,40.25
2022-10-17T14:44:52.459Z,42.70
2022-10-17T14:50:27.484Z,46.15
2022-10-17T14:53:04.939Z,49.30
2022-10-17T14:55:36.592Z,44.13
2022-10-17T14:58:20.061Z,51.45
2022-10-17T15:00:51.178Z,50.22
2022-10-17T15:03:20.691Z,50.75
2022-10-17T15:05:50.354Z,46.35
2022-10-17T15:08:21.409Z,50.33
2022-10-17T15:10:51.902Z,52.63
2022-10-17T15:13:31.354Z,50.15
2022-10-17T15:16:04.203Z,51.15
2022-10-17T15:18:34.427Z,45.45
2022-10-17T15:21:05.337Z,49.03
2022-10-17T15:23:42.651Z,55.00
2022-10-17T15:26:22.892Z,54.60
2022-10-17T15:28:54.489Z,52.10
2022-10-17T15:31:24.894Z,57.72
2022-10-17T15:33:54.463Z,54.95
2022-10-17T15:36:26.375Z,58.47
2022-10-17T15:38:57.017Z,62.42
2022-10-17T15:41:27.631Z,59.47
2022-10-17T15:43:58.324Z,64.07
2022-10-17T15:46:29.416Z,65.13
2022-10-17T15:49:03.119Z,59.35
2022-10-17T15:51:32.218Z,62.80
2022-10-17T15:54:01.902Z,56.60
2022-10-17T15:56:32.811Z,53.03
2022-10-17T15:59:04.190Z,58.22
2022-10-17T16:01:34.786Z,54.63
2022-10-17T16:04:04.069Z,56.22
2022-10-17T16:06:34.202Z,52.75
2022-10-17T16:09:03.329Z,57.75
2022-10-17T16:11:36.455Z,53.00
2022-10-17T16:14:09.554Z,58.15
2022-10-17T16:16:39.155Z,57.47
2022-10-17T16:19:08.507Z,55.10
2022-10-17T16:21:39.514Z,55.30
2022-10-17T16:24:11.152Z,54.55
2022-10-17T16:26:40.400Z,64.05
2022-10-17T16:29:10.961Z,54.88
2022-10-17T16:31:44.066Z,53.58
2022-10-17T16:34:14.616Z,52.60
2022-10-17T16:36:44.144Z,57.38
2022-10-17T16:39:13.274Z,48.47
2022-10-17T16:41:42.368Z,65.63
2022-10-17T16:44:14.862Z,54.13
2022-10-17T16:46:44.021Z,56.72
2022-10-17T16:49:18.451Z,58.38
2022-10-17T16:51:47.667Z,60.05
2022-10-17T16:54:16.720Z,58.72
2022-10-17T16:56:45.862Z,60.10
2022-10-17T16:59:16.378Z,60.80
2022-10-17T17:01:45.473Z,53.33
2022-10-17T17:04:14.538Z,50.70
2022-10-17T17:09:17.722Z,56.38
2022-10-17T17:11:46.857Z,54.95
2022-10-17T17:14:17.435Z,60.10
2022-10-17T17:16:46.575Z,59.65
2022-10-17T17:19:18.385Z,56.60
2022-10-17T17:21:51.152Z,55.40
2022-10-17T17:24:21.383Z,64.30
2022-10-17T17:26:53.501Z,71.32
2022-10-17T17:29:26.493Z,61.45
2022-10-17T17:31:55.584Z,65.35
2022-10-17T17:34:24.725Z,64.55
2022-10-17T17:36:53.888Z,62.78
2022-10-17T17:39:22.996Z,59.33
2022-10-17T17:41:52.073Z,59.65
2022-10-17T17:44:23.637Z,67.03
2022-10-17T17:46:52.737Z,59.72
2022-10-17T17:49:24.159Z,56.45
2022-10-17T17:51:53.259Z,59.28
2022-10-17T17:54:22.427Z,52.78
2022-10-17T17:56:51.531Z,57.15
2022-10-17T17:59:21.359Z,58.30
2022-10-17T18:01:53.053Z,58.75
2022-10-17T18:04:22.988Z,62.28
2022-10-17T18:06:53.667Z,55.92
2022-10-17T18:09:24.392Z,60.33
2022-10-17T18:11:53.518Z,60.08
2022-10-17T18:14:24.151Z,55.85
2022-10-17T18:16:54.687Z,60.72
2022-10-17T18:19:24.061Z,54.45
2022-10-17T18:21:55.550Z,56.88
2022-10-17T18:24:24.750Z,53.13
2022-10-17T18:26:59.149Z,53.03
2022-10-17T18:29:29.706Z,58.17
2022-10-17T18:32:00.624Z,53.90
2022-10-17T18:34:29.969Z,53.92
2022-10-17T18:36:59.141Z,55.45
2022-10-17T18:39:28.212Z,60.38
2022-10-17T18:41:57.389Z,63.28
2022-10-17T18:44:26.677Z,64.03
2022-10-17T18:46:58.579Z,58.08
2022-10-17T18:49:34.799Z,57.15
2022-10-17T18:52:04.028Z,58.72
2022-10-17T18:54:36.443Z,59.22
2022-10-17T18:57:05.970Z,60.53
2022-10-17T18:59:35.315Z,57.45
2022-10-17T19:02:04.470Z,63.53
2022-10-17T19:04:35.167Z,64.55
2022-10-17T19:07:04.398Z,61.00
2022-10-17T19:09:33.623Z,63.40
2022-10-17T19:12:02.715Z,61.00
2022-10-17T19:14:31.850Z,61.17
2022-10-17T19:17:01.118Z,61.95
2022-10-17T19:19:30.275Z,53.58
2022-10-17T19:22:03.594Z,52.58
2022-10-17T19:24:32.765Z,52.85
2022-10-17T19:27:02.948Z,52.88
2022-10-17T19:29:33.342Z,53.78
2022-10-17T19:32:02.839Z,52.55
2022-10-17T19:34:32.028Z,54.25
2022-10-17T19:37:02.693Z,52.28
2022-10-17T19:39:31.859Z,50.83
2022-10-17T19:42:05.978Z,52.97
2022-10-17T19:44:36.265Z,54.65
2022-10-17T19:47:05.302Z,55.50
2022-10-17T19:49:35.467Z,54.85
2022-10-17T19:52:06.371Z,57.15
2022-10-17T19:54:35.568Z,55.33
2022-10-17T19:57:09.506Z,54.45
2022-10-17T19:59:40.619Z,52.08
2022-10-17T20:02:09.725Z,51.13
2022-10-17T20:04:49.533Z,54.03
2022-10-17T20:07:29.430Z,52.50
2022-10-17T20:09:58.521Z,55.92
2022-10-17T20:12:30.960Z,56.38
2022-10-17T20:15:00.307Z,60.75
2022-10-17T20:17:29.427Z,63.15
2022-10-17T20:19:58.533Z,63.05
2022-10-17T20:22:29.383Z,63.50
2022-10-17T20:24:58.831Z,67.55
2022-10-17T20:27:28.089Z,65.20
2022-10-17T20:30:01.946Z,64.05
2022-10-17T20:32:33.635Z,69.32
2022-10-17T20:35:07.643Z,68.18
2022-10-17T20:37:41.697Z,68.53
2022-10-17T20:43:01.759Z,69.28
2022-10-17T20:45:43.913Z,71.07
2022-10-17T20:48:20.338Z,71.65
2022-10-17T20:50:49.591Z,69.05
2022-10-17T20:53:37.687Z,66.88
2022-10-17T20:56:09.039Z,62.70
2022-10-17T20:58:38.376Z,66.47
2022-10-17T21:01:08.853Z,63.13
2022-10-17T21:03:41.154Z,62.40
2022-10-17T21:06:13.518Z,62.58
2022-10-17T21:08:44.179Z,60.53
2022-10-17T21:11:15.095Z,62.13
2022-10-17T21:13:44.931Z,56.55
2022-10-17T21:16:15.640Z,54.45
2022-10-17T21:18:45.082Z,57.78
2022-10-17T21:21:17.054Z,57.15
2022-10-17T21:23:49.671Z,51.97
2022-10-17T21:26:19.705Z,50.45
2022-10-17T21:28:50.198Z,51.38
2022-10-17T21:31:20.914Z,47.78
2022-10-17T21:33:52.033Z,55.03
2022-10-17T21:36:22.327Z,49.30
2022-10-17T21:38:54.722Z,50.03
2022-10-17T21:41:25.998Z,48.72
2022-10-17T21:43:56.992Z,48.30
2022-10-17T21:46:26.411Z,47.78
2022-10-17T21:48:55.695Z,45.88
2022-10-17T21:51:26.067Z,45.67
2022-10-17T21:53:58.502Z,51.50
2022-10-17T21:56:31.005Z,46.67
2022-10-17T21:59:00.938Z,47.63
2022-10-17T22:01:32.150Z,47.63
2022-10-17T22:04:03.052Z,44.50
2022-10-17T22:06:41.490Z,44.50
2022-10-17T22:09:19.942Z,45.17
2022-10-17T22:11:50.525Z,44.55
2022-10-17T22:14:21.203Z,44.72
2022-10-17T22:16:51.267Z,42.53
2022-10-17T22:19:22.720Z,43.83
2022-10-17T22:21:51.981Z,41.78
2022-10-17T22:24:23.724Z,41.75
2022-10-17T22:26:53.253Z,42.63
2022-10-17T22:29:22.713Z,45.58
2022-10-17T22:31:51.982Z,44.17
2022-10-17T22:34:22.607Z,44.75
2022-10-17T22:36:51.713Z,45.65
2022-10-17T22:39:22.520Z,41.88
2022-10-17T22:41:51.814Z,41.60
2022-10-17T22:44:20.923Z,42.70
2022-10-17T22:46:50.267Z,41.03
2022-10-17T22:49:19.510Z,40.95
2022-10-17T22:51:48.676Z,41.30
2022-10-17T22:54:17.806Z,39.28
2022-10-17T22:56:48.413Z,39.88
2022-10-17T22:59:17.677Z,40.72
2022-10-17T23:01:47.011Z,41.15
2022-10-17T23:04:16.192Z,43.33
2022-10-17T23:06:45.318Z,47.83
2022-10-17T23:09:14.563Z,44.22
2022-10-17T23:11:43.601Z,46.97
2022-10-17T23:14:14.193Z,44.13
2022-10-17T23:16:43.316Z,47.20
2022-10-17T23:19:12.417Z,45.72
2022-10-17T23:21:41.556Z,46.25
2022-10-17T23:24:10.590Z,45.25
2022-10-17T23:26:39.702Z,44.95
2022-10-17T23:29:08.922Z,42.67
2022-10-17T23:31:39.500Z,44.95
2022-10-17T23:34:08.625Z,43.75
2022-10-17T23:36:38.825Z,42.92
2022-10-17T23:39:08.189Z,38.85
2022-10-17T23:41:37.267Z,40.55
2022-10-17T23:44:07.095Z,41.05
2022-10-17T23:46:36.201Z,38.85
2022-10-17T23:49:07.006Z,37.88
2022-10-17T23:51:36.099Z,35.85
2022-10-17T23:54:05.411Z,33.75
2022-10-17T23:56:34.571Z,34.47
2022-10-17T23:59:05.731Z,34.40
